This is the latest recevied weather packets stored in our database for station/object W8DRH-13. If no packets are shown the sender has not sent any weather packets the latest 10 day(s).
| Time | Temp. | Humidity | Pressure | Rain* | Wind** | Luminosity | Snow |
|---|---|---|---|---|---|---|---|
| 1778013523 | 15.56° C | 92% | 1005 hPa | 0 mm | - | 83 W/m² | - |
| 1778013219 | 15.56° C | 92% | 1005.1 hPa | 0 mm | - | 64 W/m² | - |
| 1778012916 | 15.56° C | 92% | 1004.9 hPa | 0 mm | - | 150 W/m² | - |
| 1778012612 | 15.56° C | 92% | 1005.1 hPa | 0 mm | - | 97 W/m² | - |
| 1778012309 | 15.56° C | 92% | 1005.1 hPa | 0 mm | - | 84 W/m² | - |
| 1778012006 | 15.56° C | 92% | 1005.3 hPa | 0 mm | - | 59 W/m² | - |
| 1778011705 | 15.56° C | 92% | 1005.1 hPa | 0 mm | - | 106 W/m² | - |
| 1778011401 | 15.56° C | 92% | 1005.5 hPa | 0 mm | - | 49 W/m² | - |
| 1778011096 | 15.56° C | 91% | 1005.3 hPa | 0 mm | - | 46 W/m² | - |
| 1778010794 | 15.56° C | 91% | 1005.4 hPa | 0 mm | - | 25 W/m² | - |
| 1778010491 | 15.56° C | 91% | 1005.3 hPa | 0 mm | - | 35 W/m² | - |
| 1778010188 | 15.56° C | 91% | 1005.5 hPa | 0 mm | - | 24 W/m² | - |
| 1778009883 | 15.56° C | 91% | 1005.4 hPa | 0 mm | - | 50 W/m² | - |
| 1778009582 | 15.56° C | 91% | 1005.5 hPa | 0 mm | - | 20 W/m² | - |
| 1778009279 | 15.56° C | 91% | 1005.5 hPa | 0 mm | - | 38 W/m² | - |
| 1778008977 | 15.56° C | 90% | 1005.6 hPa | 0 mm | - | 52 W/m² | - |
| 1778008674 | 15.56° C | 90% | 1005.8 hPa | 1.27 mm | - | 65 W/m² | - |
| 1778008373 | 15.56° C | 90% | 1005.7 hPa | 3.05 mm | - | 89 W/m² | - |
| 1778008069 | 15.56° C | 89% | 1005.8 hPa | 1.78 mm | - | 87 W/m² | - |
| 1778007764 | 16.11° C | 87% | 1005.8 hPa | 0 mm | - | 79 W/m² | - |
| 1778007461 | 16.11° C | 87% | 1005.8 hPa | 0 mm | - | 85 W/m² | - |
| 1778007157 | 16.11° C | 87% | 1005.8 hPa | 0 mm | - | 184 W/m² | - |
| 1778006853 | 15.56° C | 87% | 1005.7 hPa | 0 mm | - | 205 W/m² | - |
| 1778006551 | 16.11° C | 87% | 1005.8 hPa | 0 mm | - | 85 W/m² | - |
| 1778006247 | 16.11° C | 86% | 1005.6 hPa | 0 mm | - | 68 W/m² | - |
* Rain latest hour (hover to see other rain measurements)
** Current wind speed in m/s (hover to see current wind gust speed)